• Join FlightAware (Why Join?)
  • Login
  • US Flag 
10:05PM EDT


 

Airport Tracker/Info


-or-


 

Live Flight TrackerFlight Track Log ✈ SWA946 ✈ 13-Apr-2013 ✈ KMHT - KMCO

Flight Track Log - Related Links

Times and Time Zones

All times are in EDT time to prevent confusion due to time zone crossing. See the SWA946 flight status page for this flight to view local times or setup timezone preferences in your user account.

Time Position Orientation Groundspeed Altitude Reporting Facility
EDT Latitude Longitude Course Direction KTS MPH feet Rate Location/Type
11:02AM 42.9500 -71.4167 23° Northeast 161 185 1,400  Level KA90
11:03AM 43.0019 -71.3869 23° Northeast 208 239 4,400 2,880 Climbing Boston Center
11:04AM 43.0539 -71.3519 26° Northeast 222 255 7,500 2,760 Climbing Boston Center
11:05AM 43.0675 -71.2550 79° East 227 261 9,900 1,920 Climbing Boston Center
11:06AM 43.0636 -71.1044 92° East 310 357 11,500 1,980 Climbing Boston Center
11:07AM 43.0533 -70.9511 95° East 387 445 13,900 2,580 Climbing Boston Center
11:08AM 42.9486 -70.8997 160° South 370 426 16,600 2,760 Climbing Boston Center
11:09AM 42.8572 -70.9389 197° South 337 388 19,500 2,580 Climbing Boston Center
11:10AM 42.7497 -70.9981 202° Southwest 367 422 21,900 2,340 Climbing Boston Center
11:11AM 42.6461 -71.0514 201° Southwest 390 449 24,300 2,100 Climbing Boston Center
11:12AM 42.5828 -71.1600 232° Southwest 396 456 26,200 2,160 Climbing Boston Center
11:13AM 42.5194 -71.2825 235° Southwest 396 456 28,700 2,640 Climbing Boston Center
11:14AM 42.4603 -71.3961 235° Southwest 396 456 31,600 2,700 Climbing Boston Center
11:15AM 42.4028 -71.5039 234° Southwest 380 437 34,100 2,040 Climbing Boston Center
11:16AM 42.3453 -71.6058 233° Southwest 360 414 35,700 1,260 Climbing Boston Center
11:17AM 42.2917 -71.7103 235° Southwest 360 414 36,700 840 Climbing Boston Center
11:18AM 42.2342 -71.8206 235° Southwest 360 414 37,400 600 Climbing Boston Center
11:19AM 42.1742 -71.9303 234° Southwest 365 420 38,000 240 Climbing Boston Center
11:20AM 42.1142 -72.0456 235° Southwest 370 426 38,000  Level Boston Center
11:21AM 42.0542 -72.1578 234° Southwest 370 426 38,000  Level Boston Center
11:22AM 41.9939 -72.2725 235° Southwest 370 426 38,000  Level Boston Center
11:23AM 41.9294 -72.3956 235° Southwest 375 432 38,000  Level Boston Center
11:24AM 41.8669 -72.5069 233° Southwest 375 432 38,000  Level Boston Center
11:25AM 41.8083 -72.6183 235° Southwest 375 432 38,000  Level Boston Center
11:26AM 41.7497 -72.7267 234° Southwest 375 432 38,000  Level Boston Center
11:27AM 41.6911 -72.8375 235° Southwest 375 432 38,000  Level Boston Center
11:28AM 41.6303 -72.9483 234° Southwest 375 432 38,000  Level Boston Center
11:29AM 41.5714 -73.0589 235° Southwest 375 432 38,000  Level Boston Center
11:30AM 41.5208 -73.1469 233° Southwest 375 432 38,000  Level Boston Center
11:31AM 41.4639 -73.2544 235° Southwest 363 418 38,000  Level Boston Center
11:33AM 41.3497 -73.4603 234° Southwest 355 409 38,000  Level New York Center
11:34AM 41.2844 -73.5792 234° Southwest 355 409 38,000  Level New York Center
11:35AM 41.2236 -73.6786 231° Southwest 355 409 38,000  Level New York Center
11:36AM 41.1606 -73.7861 232° Southwest 355 409 38,000  Level New York Center
11:37AM 41.0994 -73.8908 232° Southwest 360 414 38,000  Level New York Center
11:38AM 41.0386 -73.9925 232° Southwest 360 414 38,000  Level New York Center
11:39AM 40.9772 -74.0967 232° Southwest 365 420 38,000  Level New York Center
11:40AM 40.9183 -74.1872 229° Southwest 365 420 38,000  Level New York Center
11:41AM 40.8569 -74.2911 232° Southwest 365 420 38,000  Level New York Center
11:42AM 40.7936 -74.3947 231° Southwest 365 420 38,000  Level New York Center
11:43AM 40.7319 -74.4956 231° Southwest 365 420 38,000  Level New York Center
11:44AM 40.6703 -74.5989 232° Southwest 360 414 38,000  Level New York Center
11:45AM 40.6089 -74.6992 231° Southwest 360 414 38,000  Level New York Center
11:46AM 40.5450 -74.7939 228° Southwest 360 414 38,000  Level New York Center
11:47AM 40.4747 -74.8989 229° Southwest 355 409 38,000  Level New York Center
11:48AM 40.4156 -74.9825 227° Southwest 355 409 38,000  Level New York Center
11:49AM 40.3497 -75.0739 227° Southwest 355 409 38,000  Level New York Center
11:50AM 40.2817 -75.1678 226° Southwest 360 414 38,000  Level New York Center
11:51AM 40.2156 -75.2614 227° Southwest 360 414 38,000  Level New York Center
11:52AM 40.1517 -75.3550 228° Southwest 360 414 38,000  Level New York Center
11:53AM 40.0833 -75.4508 227° Southwest 360 414 38,000  Level New York Center
11:54AM 40.0150 -75.5411 225° Southwest 360 414 38,000  Level New York Center
11:55AM 39.9464 -75.6394 228° Southwest 360 414 38,000  Level New York Center
11:56AM 39.8817 -75.7375 229° Southwest 360 414 38,000  Level New York Center
11:57AM 39.8192 -75.8358 230° Southwest 360 414 38,000  Level New York Center
11:58AM 39.7589 -75.9314 231° Southwest 360 414 38,000  Level New York Center
12:01PM 39.5956 -76.1814 230° Southwest 361 415 38,000  Level Washington Center
12:02PM 39.5344 -76.2831 232° Southwest 366 421 38,000  Level Washington Center
12:03PM 39.4672 -76.3819 229° Southwest 371 427 38,000  Level Washington Center
12:04PM 39.4061 -76.4806 231° Southwest 371 427 38,000  Level Washington Center
12:05PM 39.3469 -76.5739 231° Southwest 371 427 38,000  Level Washington Center
12:06PM 39.2836 -76.6750 231° Southwest 371 427 38,000  Level Washington Center
12:07PM 39.2203 -76.7703 229° Southwest 371 427 38,000  Level Washington Center
12:08PM 39.1567 -76.8711 231° Southwest 371 427 38,000  Level Washington Center
12:09PM 39.0931 -76.9689 230° Southwest 371 427 38,000  Level Washington Center
12:10PM 39.0211 -77.0664 226° Southwest 371 427 38,000  Level Washington Center
12:11PM 38.9450 -77.1503 221° Southwest 371 427 38,000  Level Washington Center
12:12PM 38.8667 -77.2339 220° Southwest 371 427 38,000  Level Washington Center
12:13PM 38.7883 -77.3200 221° Southwest 371 427 38,000  Level Washington Center
12:14PM 38.7100 -77.4008 219° Southwest 371 427 38,000  Level Washington Center
12:15PM 38.6336 -77.4892 222° Southwest 371 427 38,000  Level Washington Center
12:16PM 38.5489 -77.5800 220° Southwest 371 427 38,000  Level Washington Center
12:17PM 38.4703 -77.6656 220° Southwest 371 427 38,000  Level Washington Center
12:18PM 38.3894 -77.7506 220° Southwest 371 427 38,000  Level Washington Center
12:19PM 38.3108 -77.8331 219° Southwest 371 427 38,000  Level Washington Center
12:20PM 38.2319 -77.9206 221° Southwest 376 433 38,000  Level Washington Center
12:21PM 38.1533 -78.0025 219° Southwest 376 433 38,000  Level Washington Center
12:22PM 38.0722 -78.0869 219° Southwest 371 427 38,000  Level Washington Center
12:23PM 38.0081 -78.1614 222° Southwest 365 420 38,000  Level Washington Center
12:24PM 37.9292 -78.2375 217° Southwest 365 420 38,000  Level Washington Center
12:25PM 37.8439 -78.3239 219° Southwest 365 420 38,000  Level Washington Center
12:26PM 37.7608 -78.3972 215° Southwest 365 420 38,000  Level Washington Center
12:27PM 37.6797 -78.4731 217° Southwest 365 420 38,000  Level Washington Center
12:28PM 37.5986 -78.5486 216° Southwest 365 420 38,000  Level Washington Center
12:29PM 37.5175 -78.6239 216° Southwest 370 426 38,000  Level Washington Center
12:30PM 37.4450 -78.6917 217° Southwest 370 426 38,000  Level Washington Center
12:31PM 37.3636 -78.7667 216° Southwest 370 426 38,000  Level Washington Center
12:32PM 37.2844 -78.8444 218° Southwest 370 426 38,000  Level Washington Center
12:33PM 37.2011 -78.9189 215° Southwest 370 426 38,000  Level Washington Center
12:34PM 37.1089 -79.0036 216° Southwest 376 433 38,000  Level Washington Center
12:35PM 37.0275 -79.0806 217° Southwest 376 433 38,000  Level Washington Center
12:36PM 36.9439 -79.1575 216° Southwest 376 433 38,000  Level Washington Center
12:37PM 36.8625 -79.2289 215° Southwest 376 433 38,000  Level Washington Center
12:38PM 36.7806 -79.3081 218° Southwest 371 427 38,000  Level Washington Center
12:39PM 36.6969 -79.3844 216° Southwest 376 433 38,000  Level Washington Center
12:41PM 36.5283 -79.5356 216° Southwest 362 417 38,000  Level Atlanta Center
12:42PM 36.4436 -79.6100 215° Southwest 369 425 38,000  Level Atlanta Center
12:43PM 36.3608 -79.6894 218° Southwest 369 425 38,000  Level Atlanta Center
12:44PM 36.2758 -79.7636 215° Southwest 374 430 38,000  Level Atlanta Center
12:45PM 36.1931 -79.8425 218° Southwest 374 430 38,000  Level Atlanta Center
12:46PM 36.1181 -79.9056 214° Southwest 374 430 38,000  Level Atlanta Center
12:47PM 36.0286 -79.9769 213° Southwest 379 436 38,000  Level Atlanta Center
12:48PM 35.9256 -80.0153 197° South 384 442 38,000  Level Atlanta Center
12:49PM 35.8100 -80.0544 195° South 389 448 38,000  Level Atlanta Center
12:50PM 35.7044 -80.0825 192° South 389 448 38,000  Level Atlanta Center
12:51PM 35.5994 -80.1233 198° South 395 455 38,000  Level Atlanta Center
12:52PM 35.4942 -80.1589 195° South 389 448 38,000  Level Atlanta Center
12:53PM 35.3931 -80.1892 194° South 384 442 38,000  Level Atlanta Center
12:54PM 35.2792 -80.2250 194° South 393 452 38,000  Level Atlanta Center
12:56PM 35.1069 -80.2817 195° South 396 456 38,000  Level Jacksonville Center
12:57PM 35.0075 -80.3153 195° South 383 441 38,000  Level Jacksonville Center
12:58PM 34.8997 -80.3514 195° South 389 448 38,000  Level Jacksonville Center
12:59PM 34.8003 -80.3822 194° South 383 441 38,000  Level Jacksonville Center
01:00PM 34.6967 -80.4128 194° South 376 433 38,000  Level Jacksonville Center
01:01PM 34.5931 -80.4486 196° South 376 433 38,000  Level Jacksonville Center
01:02PM 34.4914 -80.4792 194° South 376 433 38,000  Level Jacksonville Center
01:03PM 34.3878 -80.5147 196° South 376 433 38,000  Level Jacksonville Center
01:04PM 34.2842 -80.5453 194° South 376 433 38,000  Level Jacksonville Center
01:05PM 34.1825 -80.5806 196° South 376 433 38,000  Level Jacksonville Center
01:06PM 34.0744 -80.6111 193° South 382 440 38,000  Level Jacksonville Center
01:07PM 33.9606 -80.6492 195° South 392 451 38,000  Level Jacksonville Center
01:08PM 33.8547 -80.6819 194° South 392 451 38,000  Level Jacksonville Center
01:09PM 33.7486 -80.7144 194° South 392 451 38,000  Level Jacksonville Center
01:10PM 33.6428 -80.7444 193° South 392 451 38,000  Level Jacksonville Center
01:11PM 33.5369 -80.7794 195° South 392 451 38,000  Level Jacksonville Center
01:12PM 33.4311 -80.8144 195° South 392 451 38,000  Level Jacksonville Center
01:13PM 33.3253 -80.8442 193° South 392 451 38,000  Level Jacksonville Center
01:14PM 33.2192 -80.8764 194° South 392 451 38,000  Level Jacksonville Center
01:15PM 33.1133 -80.9086 194° South 392 451 38,000  Level Jacksonville Center
01:16PM 33.0075 -80.9431 195° South 392 451 38,000  Level Jacksonville Center
01:17PM 32.9014 -80.9750 194° South 392 451 38,000  Level Jacksonville Center
01:18PM 32.7933 -81.0044 193° South 392 451 38,000  Level Jacksonville Center
01:19PM 32.6894 -81.0364 195° South 392 451 38,000  Level Jacksonville Center
01:20PM 32.5878 -81.0706 196° South 379 436 38,000  Level Jacksonville Center
01:21PM 32.4919 -81.0994 194° South 379 436 38,000  Level Jacksonville Center
01:22PM 32.3736 -81.1314 193° South 397 457 38,000  Level Jacksonville Center
01:23PM 32.2675 -81.1628 194° South 398 458 38,000  Level Jacksonville Center
01:24PM 32.1614 -81.1944 194° South 396 456 38,000  Level Jacksonville Center
01:25PM 32.0486 -81.1964 181° South 401 461 38,000  Level Jacksonville Center
01:26PM 31.9317 -81.1936 179° South 415 478 38,000  Level Jacksonville Center
01:27PM 31.8314 -81.1906 179° South 415 478 38,000  Level Jacksonville Center
01:28PM 31.7083 -81.1856 178° South 410 472 38,000  Level Jacksonville Center
01:29PM 31.6058 -81.1825 179° South 402 463 38,000  Level Jacksonville Center
01:30PM 31.4828 -81.1775 178° South 408 470 38,000  Level Jacksonville Center
01:31PM 31.3719 -81.1722 178° South 407 468 38,000 -60 Level Jacksonville Center
01:32PM 31.2572 -81.1744 181° South 406 467 37,900 -600 Descending Jacksonville Center
01:33PM 31.1444 -81.1717 179° South 401 461 36,900 -1,020 Descending Jacksonville Center
01:34PM 31.0400 -81.1686 179° South 401 461 35,900 -960 Descending Jacksonville Center
01:35PM 30.9314 -81.1633 178° South 396 456 35,000 -960 Descending Jacksonville Center
01:36PM 30.8183 -81.1581 178° South 396 456 34,000 -540 Descending Jacksonville Center
01:37PM 30.7056 -81.1553 179° South 406 467 34,000 -300 Level Jacksonville Center
01:38PM 30.5928 -81.1503 178° South 406 467 33,500 -900 Descending Jacksonville Center
01:39PM 30.4800 -81.1500 180° South 406 467 32,300 -1,080 Descending Jacksonville Center
01:40PM 30.3589 -81.1447 178° South 417 480 31,400 -1,020 Descending Jacksonville Center
01:41PM 30.2419 -81.1422 179° South 422 486 30,300 -1,080 Descending Jacksonville Center
01:42PM 30.1292 -81.1394 179° South 422 486 29,300 -1,020 Descending Jacksonville Center
01:43PM 30.0103 -81.1367 179° South 422 486 28,300 -1,020 Descending Jacksonville Center
01:44PM 29.8994 -81.1339 179° South 417 480 27,300 -1,080 Descending Jacksonville Center
01:45PM 29.7847 -81.1314 179° South 417 480 26,200 -960 Descending Jacksonville Center
01:46PM 29.6864 -81.1283 178° South 412 474 25,400 -1,320 Descending Jacksonville Center
01:47PM 29.5758 -81.1231 178° South 407 468 23,600 -2,100 Descending Jacksonville Center
01:48PM 29.4608 -81.1253 181° South 387 445 21,300 -2,220 Descending Jacksonville Center
01:49PM 29.3606 -81.1197 177° South 365 420 19,200 -2,040 Descending Jacksonville Center
01:50PM 29.2603 -81.1122 176° South 366 421 17,300 -2,040 Descending Jacksonville Center
01:51PM 29.1642 -81.1044 176° South 356 410 15,200 -2,100 Descending Jacksonville Center
01:52PM 29.0764 -81.0964 175° South 350 403 13,200 -1,620 Descending Jacksonville Center
01:53PM 28.9844 -81.0861 174° South 350 403 12,000 -900 Descending Jacksonville Center
01:54PM 28.8903 -81.0714 172° South 344 396 11,400 -840 Descending Jacksonville Center
01:54PM 28.8333 -81.0500 162° South 339 390 10,700 -960 Descending Orlando TRACON
01:55PM 28.7500 -81.1000 208° Southwest 274 315 9,900 -420 Descending Orlando TRACON
01:56PM 28.7000 -81.1500 221° Southwest 224 258 9,900  Level Orlando TRACON
01:57PM 28.6500 -81.1667 196° South 219 252 9,900 -300 Level Orlando TRACON
01:58PM 28.5833 -81.1833 192° South 220 253 9,400 -720 Descending Orlando TRACON
01:59PM 28.5167 -81.2000 192° South 223 257 8,500 -960 Descending Orlando TRACON
02:00PM 28.4667 -81.1833 164° South 217 250 7,500 -960 Descending Orlando TRACON
02:01PM 28.4000 -81.1833 180° South 194 223 6,600 -1,140 Descending Orlando TRACON
02:02PM 28.3500 -81.1833 180° South 192 221 5,300 -1,200 Descending Orlando TRACON
02:03PM 28.3000 -81.2000 196° South 168 193 4,200 -1,380 Descending Orlando TRACON
02:04PM 28.3167 -81.2333 300° West 170 196 2,600 -1,440 Descending Orlando TRACON
02:05PM 28.3333 -81.2833 291° West 154 177 1,400 -960 Descending Orlando TRACON
02:06PM 28.3667 -81.3000 336° Northwest 140 161 700 -720 Descending Orlando TRACON
02:08PM 28.4167 -81.3000 336° Northwest  Level FlightAware Approximate
02:15PM 28.4294 -81.3090 336° Northwest  Level Estimated
02:16PM 28.4294 -81.3090 336° Northwest  Level Estimated
02:17PM 28.4294 -81.3090 336° Northwest  Level Estimated
02:18PM 28.4294 -81.3090 336° Northwest  Level Estimated